Hovedside
METAR-TAF:

METAR-TAF

Lufthavner :

Aitutaki, Cookøyene

breddegrad: 18-49-51S, lengdegrad: 159-45-51W, høyde over havet: 4 m

Gjeldene værobservasjon

Denne rapporten ble laget for 1 time og 7 minutter siden, klokken 01:00 UTC
Vind 6 kt fra Øst
Temperatur 27°C
Luftfuktighet 62%
Trykk 1011 hPa

METAR: NCAI 200100Z AUTO 10006KT //// ////// 27/19 Q1011

Tid: 16:07 (02:07 UTC)


TAF: fraværende

Værobservasjoner og værvarsel for over 4000 flyplasser (METAR- og TAF-rapporter).

Tilgjengelige stasjoner er representert av de røde og gule prikkene på kartet.

Hold musepekeren over prikken for å se navnet på stasjonen.

Klikk så for å se værobservasjoner og -varsler.

For å forandre kartet kan du klikke på den grønne knappen med svart kryss for å zoome inn, på den grønne knappen med strek for å zoome ut, eller på de grønne pilene for å se tilstøtende kart.


METAR-TAF: